Time;durP1;ratioP1;P1;durP2;ratioP2;P2;SDS_P1;SDS_P2;PMS_P1;PMS_P2;Temp;Humidity;BMP_temperature;BMP_pressure;BME280_temperature;BME280_humidity;BME280_pressure;Samples;Min_cycle;Max_cycle;Signal;HPM_P1;HPM_P2
2021/01/14 00:00:21;;;;;;;25.85;2.20;;;23.30;15.90;;;;;;5105675;28;20638;-53
2021/01/14 00:02:48;;;;;;;16.45;1.30;;;23.30;16.30;;;;;;5104873;28;20529;-52
2021/01/14 00:05:15;;;;;;;11.80;1.63;;;23.20;16.10;;;;;;5105399;28;20539;-55
2021/01/14 00:07:42;;;;;;;5.80;1.20;;;23.10;15.60;;;;;;5107459;28;20082;-57
2021/01/14 00:10:11;;;;;;;8.02;1.27;;;23.00;15.90;;;;;;5109174;28;20067;-55
2021/01/14 00:12:39;;;;;;;11.80;1.58;;;23.00;15.40;;;;;;5106454;28;20079;-54
2021/01/14 00:15:08;;;;;;;6.68;1.30;;;22.80;15.90;;;;;;5102281;28;20103;-54
2021/01/14 00:17:34;;;;;;;10.55;1.45;;;22.70;16.40;;;;;;5106464;28;20090;-51
2021/01/14 00:20:01;;;;;;;6.43;1.50;;;22.50;17.20;;;;;;5106100;28;20079;-51
2021/01/14 00:22:28;;;;;;;9.18;1.38;;;22.30;17.20;;;;;;5105719;28;20555;-52
2021/01/14 00:24:54;;;;;;;10.80;1.80;;;22.30;16.90;;;;;;5107332;28;20075;-55
2021/01/14 00:27:21;;;;;;;8.63;1.70;;;22.10;16.90;;;;;;5106441;28;20068;-56
2021/01/14 00:29:47;;;;;;;18.45;2.08;;;21.90;18.30;;;;;;5104770;28;20137;-57
2021/01/14 00:32:14;;;;;;;21.00;2.35;;;21.70;18.40;;;;;;5110937;28;20296;-53
2021/01/14 00:34:41;;;;;;;13.07;1.88;;;21.60;19.30;;;;;;5089317;28;20122;-54
2021/01/14 00:39:56;;;;;;;21.23;2.00;;;21.40;19.30;;;;;;5109153;28;20493;-53
2021/01/14 00:42:23;;;;;;;11.85;1.83;;;21.30;19.20;;;;;;5110256;28;20112;-57
2021/01/14 00:44:49;;;;;;;11.75;2.55;;;21.10;19.20;;;;;;5106196;28;20077;-53
2021/01/14 00:47:16;;;;;;;10.15;2.00;;;21.00;18.60;;;;;;5108484;28;20124;-55
2021/01/14 00:49:42;;;;;;;8.70;1.98;;;20.90;18.70;;;;;;5107761;28;20099;-53
2021/01/14 00:52:12;;;;;;;14.75;1.88;;;20.80;20.00;;;;;;5102273;28;20075;-55
2021/01/14 00:54:39;;;;;;;19.85;2.40;;;20.60;19.40;;;;;;5106344;28;20078;-53
2021/01/14 00:57:10;;;;;;;18.23;2.38;;;20.50;19.60;;;;;;5107021;28;20079;-57
2021/01/14 00:59:37;;;;;;;20.50;2.55;;;20.40;19.80;;;;;;5105218;28;20067;-54
2021/01/14 01:02:06;;;;;;;13.23;2.72;;;20.20;19.80;;;;;;5104260;28;20507;-54
2021/01/14 01:04:33;;;;;;;20.17;3.08;;;20.00;20.40;;;;;;5101026;28;20095;-55
2021/01/14 01:06:59;;;;;;;32.28;4.88;;;19.90;21.10;;;;;;5085180;28;20072;-57
2021/01/14 01:09:26;;;;;;;25.80;3.65;;;19.80;22.10;;;;;;5103927;28;20075;-55
2021/01/14 01:11:52;;;;;;;24.13;3.95;;;19.70;22.00;;;;;;5104260;28;20542;-56
2021/01/14 01:14:19;;;;;;;;;;;19.50;21.90;;;;;;5104545;28;20076;-57
2021/01/14 01:16:45;;;;;;;15.68;4.00;;;19.30;22.00;;;;;;5103539;28;19971;-56
2021/01/14 01:19:11;;;;;;;;;;;19.20;22.20;;;;;;5086665;28;20076;-57
2021/01/14 01:21:42;;;;;;;13.98;3.53;;;19.10;22.30;;;;;;5103515;28;19961;-55
2021/01/14 01:24:10;;;;;;;19.13;3.53;;;18.90;22.70;;;;;;5086483;28;20075;-53
2021/01/14 01:26:37;;;;;;;20.85;3.25;;;18.80;22.60;;;;;;5103708;28;20061;-57
2021/01/14 01:29:04;;;;;;;26.83;3.22;;;18.70;22.50;;;;;;5103617;28;20072;-53
2021/01/14 01:31:31;;;;;;;29.73;3.72;;;18.60;22.30;;;;;;5099944;28;20083;-55
2021/01/14 01:33:57;;;;;;;;;;;18.50;22.80;;;;;;5100833;28;20199;-55
2021/01/14 01:36:23;;;;;;;19.48;3.95;;;18.50;22.60;;;;;;5106529;28;19984;-55
2021/01/14 01:38:50;;;;;;;;;;;18.30;22.60;;;;;;5090379;28;20071;-56
2021/01/14 01:41:16;;;;;;;23.27;5.53;;;18.20;23.30;;;;;;5099307;28;20034;-56
2021/01/14 01:43:43;;;;;;;19.77;5.88;;;18.10;23.60;;;;;;5104008;28;20100;-56
2021/01/14 01:46:11;;;;;;;;;;;18.00;23.80;;;;;;5102367;28;20167;-57
2021/01/14 01:48:37;;;;;;;;;;;17.90;24.60;;;;;;5096687;28;20032;-56
2021/01/14 01:51:04;;;;;;;19.65;4.65;;;17.80;25.10;;;;;;5101686;28;19963;-56
2021/01/14 01:53:31;;;;;;;20.55;4.18;;;17.80;25.20;;;;;;5090280;28;20159;-55
2021/01/14 01:55:58;;;;;;;28.50;4.50;;;17.70;25.20;;;;;;5098316;28;20599;-57
2021/01/14 01:58:32;;;;;;;41.13;5.53;;;17.60;25.00;;;;;;5107241;28;20072;-56
2021/01/14 02:00:59;;;;;;;25.85;4.82;;;17.50;25.00;;;;;;5104256;28;20084;-57
2021/01/14 02:03:30;;;;;;;38.63;15.38;;;17.40;24.90;;;;;;5105445;28;20698;-57
2021/01/14 02:05:56;;;;;;;37.53;14.43;;;17.40;24.30;;;;;;5108005;28;20084;-57
2021/01/14 02:08:24;;;;;;;;;;;17.30;24.30;;;;;;5084564;28;20076;-53
2021/01/14 02:11:02;;;;;;;27.25;8.93;;;17.20;24.60;;;;;;5094508;28;19979;-54
2021/01/14 02:13:47;;;;;;;35.90;9.63;;;17.10;24.80;;;;;;5106858;28;20082;-55
2021/01/14 02:16:15;;;;;;;36.90;8.65;;;17.10;25.80;;;;;;5106089;28;20075;-56
2021/01/14 02:18:42;;;;;;;29.98;8.55;;;17.00;25.90;;;;;;5104391;28;20528;-52
2021/01/14 02:21:13;;;;;;;25.73;8.63;;;17.00;25.80;;;;;;5101689;28;20072;-53
2021/01/14 02:24:03;;;;;;;25.88;8.52;;;16.90;25.70;;;;;;5092817;28;20085;-53
2021/01/14 02:26:33;;;;;;;43.35;8.35;;;16.80;25.50;;;;;;5104404;28;20483;-55
2021/01/14 02:29:00;;;;;;;40.15;7.93;;;16.80;25.80;;;;;;5085459;28;20073;-54
2021/01/14 02:31:27;;;;;;;35.95;7.85;;;16.70;25.90;;;;;;5098364;28;20098;-56
2021/01/14 02:33:55;;;;;;;47.05;10.90;;;16.70;26.20;;;;;;5098783;27;20105;-56
2021/01/14 02:36:24;;;;;;;43.70;8.70;;;16.60;27.00;;;;;;5100470;28;20083;-51
2021/01/14 02:38:51;;;;;;;30.23;8.18;;;16.50;27.10;;;;;;5104342;28;20525;-53
2021/01/14 02:41:18;;;;;;;42.05;8.63;;;16.50;26.90;;;;;;5108276;28;20083;-55
2021/01/14 02:43:45;;;;;;;48.22;8.07;;;16.50;26.90;;;;;;5085854;28;20104;-56
2021/01/14 02:46:12;;;;;;;52.35;9.25;;;16.40;26.70;;;;;;5096861;28;20088;-58
2021/01/14 02:49:05;;;;;;;38.90;9.05;;;16.40;27.10;;;;;;5093005;28;20123;-58
2021/01/14 02:51:58;;;;;;;79.97;15.65;;;16.30;27.20;;;;;;5101051;28;20092;-56
2021/01/14 02:54:25;;;;;;;58.28;13.60;;;16.30;27.00;;;;;;5101117;28;20076;-57
2021/01/14 02:56:52;;;;;;;59.55;13.60;;;16.20;27.40;;;;;;5102679;28;20081;-55
2021/01/14 02:59:18;;;;;;;60.30;12.73;;;16.10;27.20;;;;;;5083929;28;20497;-55
2021/01/14 03:01:45;;;;;;;63.65;13.55;;;16.10;27.30;;;;;;5061865;28;21158;-54
2021/01/14 03:04:11;;;;;;;;;;;16.10;27.60;;;;;;5093825;28;20586;-58
2021/01/14 03:06:38;;;;;;;95.20;22.23;;;16.10;27.50;;;;;;5100042;28;20014;-55
2021/01/14 03:09:05;;;;;;;79.80;22.65;;;16.00;27.40;;;;;;5099929;28;20130;-58
2021/01/14 03:11:34;;;;;;;95.07;27.33;;;16.00;27.50;;;;;;5106237;28;20130;-57
2021/01/14 03:14:01;;;;;;;111.40;27.08;;;15.90;27.40;;;;;;5101275;28;20080;-56
2021/01/14 03:16:28;;;;;;;92.57;27.05;;;15.90;27.70;;;;;;5104276;28;20437;-53
2021/01/14 03:18:55;;;;;;;98.03;28.35;;;15.90;27.80;;;;;;5095873;28;20080;-53
2021/01/14 03:21:25;;;;;;;82.40;25.15;;;15.80;27.70;;;;;;5104323;28;20162;-56
2021/01/14 03:23:52;;;;;;;102.15;24.17;;;15.80;27.90;;;;;;5099406;28;20191;-58
2021/01/14 03:26:20;;;;;;;76.57;23.17;;;15.80;28.40;;;;;;5086932;28;20101;-57
2021/01/14 03:28:48;;;;;;;80.63;21.02;;;15.80;27.90;;;;;;5102355;28;20694;-54
2021/01/14 03:31:16;;;;;;;86.78;20.25;;;15.80;28.00;;;;;;5081048;28;20080;-55
2021/01/14 03:33:44;;;;;;;68.78;20.65;;;15.80;28.10;;;;;;5103271;28;20127;-57
2021/01/14 03:36:15;;;;;;;69.28;17.08;;;15.70;28.20;;;;;;5104668;28;20096;-58
2021/01/14 03:38:42;;;;;;;63.83;17.88;;;15.70;28.60;;;;;;5106140;28;20485;-58
2021/01/14 03:41:09;;;;;;;74.40;18.42;;;15.60;28.50;;;;;;5103695;28;20559;-58
2021/01/14 03:43:36;;;;;;;62.97;15.80;;;15.60;28.50;;;;;;5100777;28;20096;-57
2021/01/14 03:46:23;;;;;;;55.97;15.45;;;15.60;29.00;;;;;;5102857;28;20537;-58
2021/01/14 03:48:49;;;;;;;73.53;17.50;;;15.50;29.20;;;;;;5084799;28;20100;-58
2021/01/14 03:51:21;;;;;;;69.68;15.88;;;15.50;29.20;;;;;;5104209;28;20413;-58
2021/01/14 03:53:51;;;;;;;63.70;14.85;;;15.40;29.50;;;;;;5098806;28;20064;-58
2021/01/14 03:56:18;;;;;;;54.20;13.95;;;15.40;29.50;;;;;;5089261;28;20189;-58
2021/01/14 03:58:45;;;;;;;47.15;11.23;;;15.40;29.30;;;;;;5105428;28;20108;-56
2021/01/14 04:01:12;;;;;;;37.08;10.75;;;15.40;28.90;;;;;;5101457;28;20072;-55
2021/01/14 04:03:44;;;;;;;41.13;9.93;;;15.30;28.80;;;;;;5101527;28;20088;-58
2021/01/14 04:06:11;;;;;;;34.30;10.18;;;15.30;28.80;;;;;;5099920;28;20084;-57
2021/01/14 04:08:38;;;;;;;33.88;10.00;;;15.30;28.80;;;;;;5108156;28;20481;-55
2021/01/14 04:11:05;;;;;;;36.95;9.70;;;15.30;29.10;;;;;;5097722;28;20076;-55
2021/01/14 04:13:32;;;;;;;33.60;11.10;;;15.30;29.60;;;;;;5110341;28;20174;-56
2021/01/14 04:15:59;;;;;;;48.10;11.25;;;15.20;29.50;;;;;;5108812;28;20098;-55
2021/01/14 04:18:25;;;;;;;32.15;9.75;;;15.20;29.80;;;;;;5099337;28;20080;-55
2021/01/14 04:20:52;;;;;;;;;;;15.20;30.00;;;;;;5084350;28;20145;-56
2021/01/14 04:23:19;;;;;;;31.65;10.32;;;15.20;31.00;;;;;;5105463;28;20479;-57
2021/01/14 04:25:45;;;;;;;31.98;10.60;;;15.10;30.70;;;;;;5107001;28;20455;-56
2021/01/14 04:28:15;;;;;;;45.95;12.13;;;15.10;30.90;;;;;;5105025;28;20084;-55
2021/01/14 04:30:41;;;;;;;40.88;11.48;;;15.00;31.30;;;;;;5104612;28;20147;-59
2021/01/14 04:33:14;;;;;;;45.85;11.68;;;15.00;31.10;;;;;;5106190;28;20715;-59
2021/01/14 04:35:45;;;;;;;53.67;12.43;;;14.90;31.10;;;;;;5103323;28;20091;-53
2021/01/14 04:38:12;;;;;;;47.17;12.02;;;14.90;31.60;;;;;;5095908;28;20080;-57
2021/01/14 04:40:38;;;;;;;39.63;11.13;;;14.90;31.70;;;;;;5099157;28;20072;-55
2021/01/14 04:43:06;;;;;;;36.42;9.98;;;14.80;31.50;;;;;;5105008;28;20154;-54
2021/01/14 04:45:34;;;;;;;38.75;9.88;;;14.70;31.50;;;;;;5107502;28;20079;-57
2021/01/14 04:48:02;;;;;;;40.47;10.13;;;14.70;31.90;;;;;;5106637;28;20092;-58
2021/01/14 04:50:29;;;;;;;45.47;9.45;;;14.70;32.60;;;;;;5098134;28;20160;-56
2021/01/14 04:52:59;;;;;;;38.97;9.25;;;14.60;32.20;;;;;;5108870;28;20080;-57
2021/01/14 04:55:29;;;;;;;43.40;11.82;;;14.60;32.60;;;;;;5108094;28;20101;-53
2021/01/14 04:57:57;;;;;;;48.20;15.77;;;14.60;32.70;;;;;;5103564;28;20077;-55
2021/01/14 05:00:25;;;;;;;44.60;14.05;;;14.50;32.80;;;;;;5102960;28;20527;-56
2021/01/14 05:03:02;;;;;;;41.50;12.20;;;14.50;32.50;;;;;;5109998;28;20544;-56
2021/01/14 05:05:31;;;;;;;41.90;11.73;;;14.50;32.40;;;;;;5105410;28;20199;-55
2021/01/14 05:08:06;;;;;;;32.55;10.88;;;14.50;32.40;;;;;;5108136;28;20167;-55
2021/01/14 05:10:37;;;;;;;97.10;14.65;;;14.40;32.00;;;;;;5102706;28;20096;-57
2021/01/14 05:13:04;;;;;;;120.18;16.35;;;14.40;31.90;;;;;;5104885;28;20079;-53
2021/01/14 05:15:31;;;;;;;183.55;20.17;;;14.40;31.40;;;;;;5100263;28;20107;-54
2021/01/14 05:17:58;;;;;;;;;;;14.40;31.90;;;;;;5110978;28;20068;-54
2021/01/14 05:20:26;;;;;;;127.57;16.40;;;14.40;32.10;;;;;;5103415;28;19971;-59
2021/01/14 05:23:04;;;;;;;167.18;19.38;;;14.30;32.20;;;;;;5108481;28;20104;-53
2021/01/14 05:25:32;;;;;;;47.72;13.02;;;14.30;32.60;;;;;;5104658;28;20527;-55
2021/01/14 05:28:12;;;;;;;48.03;12.13;;;14.30;32.70;;;;;;5107740;28;20158;-56
2021/01/14 05:30:40;;;;;;;47.17;13.40;;;14.30;32.40;;;;;;5107006;28;20585;-56
2021/01/14 05:33:16;;;;;;;66.57;18.67;;;14.30;32.80;;;;;;5105383;28;20516;-56
2021/01/14 05:35:47;;;;;;;48.72;13.35;;;14.20;32.70;;;;;;5107435;28;20740;-57
2021/01/14 05:38:47;;;;;;;45.53;13.50;;;14.10;33.10;;;;;;5102131;28;20080;-55
2021/01/14 05:41:21;;;;;;;60.53;14.60;;;14.20;33.60;;;;;;5086001;28;20076;-56
2021/01/14 05:44:04;;;;;;;43.15;13.80;;;14.10;33.50;;;;;;5090810;28;20553;-56
2021/01/14 05:46:32;;;;;;;47.58;14.20;;;14.00;33.40;;;;;;5106000;28;20466;-59
2021/01/14 05:49:01;;;;;;;51.22;15.20;;;14.00;34.00;;;;;;5093673;28;20142;-58
2021/01/14 05:51:33;;;;;;;60.10;14.88;;;13.90;33.60;;;;;;5106345;28;20076;-55
2021/01/14 05:54:13;;;;;;;53.10;15.30;;;13.80;33.70;;;;;;5100455;28;20127;-55
2021/01/14 05:56:46;;;;;;;61.70;16.40;;;13.80;33.70;;;;;;5098695;28;20512;-53
2021/01/14 05:59:18;;;;;;;70.18;17.77;;;13.80;33.70;;;;;;5106392;28;20207;-57
2021/01/14 06:02:03;;;;;;;58.50;15.68;;;13.80;33.80;;;;;;5105110;28;20106;-58
2021/01/14 06:04:31;;;;;;;65.20;17.13;;;13.70;34.80;;;;;;5108061;28;20092;-56
2021/01/14 06:07:04;;;;;;;72.57;17.15;;;13.60;34.30;;;;;;5104145;28;20072;-55
2021/01/14 06:09:44;;;;;;;74.93;17.23;;;13.70;34.50;;;;;;5098072;28;20122;-57
2021/01/14 06:12:12;;;;;;;77.75;18.15;;;13.70;34.50;;;;;;5106497;28;20076;-56
2021/01/14 06:14:39;;;;;;;66.90;16.88;;;13.70;34.40;;;;;;5101564;28;20081;-53
2021/01/14 06:17:08;;;;;;;81.43;18.40;;;13.60;34.60;;;;;;5083768;28;20079;-56
2021/01/14 06:19:35;;;;;;;91.57;21.33;;;13.60;34.30;;;;;;5104188;28;20155;-57
2021/01/14 06:22:02;;;;;;;84.03;20.08;;;13.50;34.30;;;;;;5106651;28;20111;-53
2021/01/14 06:24:37;;;;;;;93.22;21.65;;;13.50;34.50;;;;;;5103595;28;20084;-56
2021/01/14 06:27:07;;;;;;;93.57;21.95;;;13.50;34.20;;;;;;5099758;28;20072;-58
2021/01/14 06:29:35;;;;;;;105.13;22.55;;;13.50;34.60;;;;;;5104512;28;20075;-52
2021/01/14 06:32:20;;;;;;;90.75;21.00;;;13.40;34.20;;;;;;5104785;28;20436;-57
2021/01/14 06:34:54;;;;;;;96.10;21.35;;;13.50;34.40;;;;;;5105169;28;20115;-56
2021/01/14 06:37:24;;;;;;;94.05;21.83;;;13.40;34.50;;;;;;5105724;28;20133;-56
2021/01/14 06:40:18;;;;;;;104.80;20.75;;;13.30;34.30;;;;;;5106194;28;20083;-58
2021/01/14 06:42:55;;;;;;;101.07;22.73;;;13.30;34.50;;;;;;5106577;28;20562;-56
2021/01/14 06:45:33;;;;;;;109.90;22.98;;;13.30;34.50;;;;;;5086058;28;20167;-52
2021/01/14 06:48:04;;;;;;;100.07;21.80;;;13.30;34.30;;;;;;5084566;28;20456;-54
2021/01/14 06:50:37;;;;;;;102.15;22.65;;;13.30;34.60;;;;;;5093557;28;20068;-59
2021/01/14 06:53:12;;;;;;;86.47;22.05;;;13.30;34.80;;;;;;5105827;28;20104;-56
2021/01/14 06:55:41;;;;;;;108.50;24.33;;;13.20;34.80;;;;;;5104074;28;20076;-56
2021/01/14 06:58:14;;;;;;;108.47;23.48;;;13.20;34.50;;;;;;5097049;28;20089;-55
2021/01/14 07:00:45;;;;;;;108.63;24.08;;;13.20;34.40;;;;;;5100391;28;20158;-55
2021/01/14 07:03:22;;;;;;;129.63;24.90;;;13.10;34.90;;;;;;5090271;28;20183;-53
2021/01/14 07:06:05;;;;;;;111.13;24.92;;;13.10;35.60;;;;;;5101712;28;20080;-55
2021/01/14 07:08:58;;;;;;;109.82;23.33;;;13.10;35.40;;;;;;5098166;28;20083;-54
2021/01/14 07:11:32;;;;;;;89.90;23.60;;;13.10;34.90;;;;;;5099046;28;20122;-57
2021/01/14 07:14:13;;;;;;;111.82;24.08;;;13.10;34.70;;;;;;5099825;28;20079;-56
2021/01/14 07:16:47;;;;;;;80.88;21.45;;;13.10;34.80;;;;;;5102815;28;20071;-56
2021/01/14 07:19:13;;;;;;;83.97;22.52;;;13.00;35.30;;;;;;5106507;28;20125;-56
2021/01/14 07:21:45;;;;;;;102.75;22.90;;;13.00;35.30;;;;;;5107372;28;20129;-53
2021/01/14 07:24:28;;;;;;;90.43;23.52;;;13.00;35.80;;;;;;5107604;28;21455;-53
2021/01/14 07:27:02;;;;;;;90.53;23.05;;;13.00;36.00;;;;;;5106727;28;20072;-56
2021/01/14 07:29:30;;;;;;;79.95;21.88;;;13.00;35.90;;;;;;5105564;28;20144;-56
2021/01/14 07:31:58;;;;;;;89.10;23.10;;;12.90;36.20;;;;;;5088801;28;20081;-56
2021/01/14 07:34:40;;;;;;;94.28;24.50;;;12.90;36.60;;;;;;5088640;28;20127;-53
2021/01/14 07:37:48;;;;;;;111.57;26.63;;;12.80;36.50;;;;;;5087716;28;20073;-53
2021/01/14 07:40:28;;;;;;;96.55;26.45;;;12.80;36.70;;;;;;5087386;28;20083;-51
2021/01/14 07:42:56;;;;;;;102.25;26.45;;;12.70;37.20;;;;;;5091780;28;20142;-54
2021/01/14 07:45:22;;;;;;;85.18;25.77;;;12.70;37.00;;;;;;5092129;28;20087;-56
2021/01/14 07:47:48;;;;;;;;;;;12.70;37.30;;;;;;5092981;28;20125;-56
2021/01/14 07:50:28;;;;;;;106.30;27.13;;;12.70;37.30;;;;;;5092488;28;20006;-54
2021/01/14 07:52:56;;;;;;;87.80;26.67;;;12.70;37.00;;;;;;5092098;28;20084;-53
2021/01/14 07:55:27;;;;;;;102.30;27.40;;;12.60;37.80;;;;;;5094020;28;20167;-53
2021/01/14 07:58:03;;;;;;;100.32;27.35;;;12.60;37.60;;;;;;5091858;28;20068;-57
2021/01/14 08:00:30;;;;;;;97.82;26.15;;;12.70;38.00;;;;;;5090806;28;20170;-53
2021/01/14 08:03:18;;;;;;;93.68;25.90;;;12.60;38.70;;;;;;5093094;28;20448;-55
2021/01/14 08:05:56;;;;;;;81.80;26.02;;;12.60;38.80;;;;;;5091480;28;20101;-56
2021/01/14 08:08:38;;;;;;;94.53;26.10;;;12.50;38.10;;;;;;5102025;27;20164;-56
2021/01/14 08:11:21;;;;;;;86.82;23.67;;;12.50;37.70;;;;;;5091065;28;20082;-52
2021/01/14 08:14:08;;;;;;;81.57;23.55;;;12.50;38.40;;;;;;5073090;28;20076;-55
2021/01/14 08:16:46;;;;;;;86.22;25.15;;;12.40;38.40;;;;;;5092325;28;20092;-53
2021/01/14 08:19:15;;;;;;;86.85;23.13;;;12.40;38.40;;;;;;5091291;28;20120;-60
2021/01/14 08:21:43;;;;;;;76.70;23.55;;;12.40;38.70;;;;;;5072473;28;20521;-54
2021/01/14 08:24:11;;;;;;;80.97;23.50;;;12.30;38.60;;;;;;5090079;28;20545;-56
2021/01/14 08:27:03;;;;;;;80.82;23.42;;;12.30;38.70;;;;;;5091058;28;20094;-54
2021/01/14 08:29:31;;;;;;;94.13;25.45;;;12.30;38.50;;;;;;5091331;28;20171;-55
2021/01/14 08:31:58;;;;;;;84.93;23.25;;;12.30;38.90;;;;;;5094487;28;20093;-57
2021/01/14 08:34:25;;;;;;;96.30;23.25;;;12.30;38.90;;;;;;5089382;28;20143;-56
2021/01/14 08:36:56;;;;;;;86.82;23.33;;;12.30;38.90;;;;;;5112101;28;20082;-54
2021/01/14 08:39:25;;;;;;;76.05;21.77;;;12.20;38.80;;;;;;5111162;28;20068;-54
2021/01/14 08:41:52;;;;;;;84.35;21.00;;;12.20;39.60;;;;;;5112041;28;20459;-56
2021/01/14 08:44:28;;;;;;;87.40;20.63;;;12.20;39.80;;;;;;5112782;28;20096;-55
2021/01/14 08:46:55;;;;;;;71.60;19.45;;;12.20;39.80;;;;;;5111588;28;20159;-55
2021/01/14 08:49:21;;;;;;;62.63;19.10;;;12.20;39.80;;;;;;5108965;28;20076;-55
2021/01/14 08:51:49;;;;;;;57.60;17.35;;;12.10;39.90;;;;;;5110922;28;20064;-57
2021/01/14 08:54:15;;;;;;;69.32;15.82;;;12.00;40.10;;;;;;5113276;28;20178;-56
2021/01/14 08:56:42;;;;;;;67.75;17.70;;;12.00;40.00;;;;;;5109674;28;20563;-56
2021/01/14 08:59:12;;;;;;;;;;;12.00;40.30;;;;;;5112390;28;20083;-55
2021/01/14 09:01:39;;;;;;;70.70;15.80;;;11.90;40.10;;;;;;5108860;28;19964;-55
2021/01/14 09:04:07;;;;;;;61.60;15.40;;;11.90;40.40;;;;;;5111341;28;20496;-53
2021/01/14 09:06:39;;;;;;;67.60;16.73;;;11.90;40.80;;;;;;5109681;28;20401;-57
2021/01/14 09:09:06;;;;;;;58.53;16.73;;;11.90;40.50;;;;;;5112952;28;20559;-54
2021/01/14 09:11:34;;;;;;;70.65;18.52;;;11.90;40.50;;;;;;5109965;28;20075;-57
2021/01/14 09:14:14;;;;;;;67.45;18.75;;;11.90;39.70;;;;;;5108976;28;20151;-57
2021/01/14 09:16:43;;;;;;;80.50;19.80;;;11.80;39.30;;;;;;5110271;28;20087;-56
2021/01/14 09:19:19;;;;;;;81.35;19.50;;;11.80;39.30;;;;;;5108563;28;20444;-56
2021/01/14 09:21:46;;;;;;;89.03;26.02;;;11.80;39.30;;;;;;5077548;28;20076;-57
2021/01/14 09:24:14;;;;;;;112.43;31.58;;;11.80;38.30;;;;;;5108379;28;20088;-56
2021/01/14 09:26:42;;;;;;;116.85;30.55;;;11.90;37.00;;;;;;5107196;28;20397;-54
2021/01/14 09:29:13;;;;;;;132.52;33.13;;;11.90;36.50;;;;;;5108575;28;20111;-57
2021/01/14 09:31:41;;;;;;;123.45;32.17;;;11.80;36.20;;;;;;5109819;28;20080;-56
2021/01/14 09:34:08;;;;;;;110.15;32.40;;;11.90;36.40;;;;;;4971922;28;3190841;-55
2021/01/14 09:36:35;;;;;;;116.68;32.58;;;11.90;36.60;;;;;;5088463;28;20079;-55
2021/01/14 09:39:05;;;;;;;115.75;32.83;;;11.90;37.50;;;;;;5111104;27;20072;-55
2021/01/14 09:41:36;;;;;;;129.07;33.25;;;11.90;36.90;;;;;;5109326;27;20068;-53
2021/01/14 09:44:06;;;;;;;127.25;33.65;;;11.80;36.70;;;;;;5109983;27;20092;-57
2021/01/14 09:46:36;;;;;;;106.00;31.02;;;11.80;37.50;;;;;;5110108;27;20464;-53
2021/01/14 09:49:09;;;;;;;104.95;31.55;;;11.80;37.60;;;;;;5112239;27;20100;-56
2021/01/14 09:51:40;;;;;;;130.73;34.20;;;11.80;38.20;;;;;;5110822;27;20091;-54
2021/01/14 09:54:07;;;;;;;100.93;33.22;;;11.80;38.10;;;;;;5111584;28;20080;-55
2021/01/14 09:56:37;;;;;;;110.28;33.30;;;11.70;37.60;;;;;;5110847;27;20588;-54
2021/01/14 09:59:28;;;;;;;112.13;32.00;;;11.80;37.90;;;;;;5091951;28;20068;-56
2021/01/14 10:02:13;;;;;;;106.38;30.35;;;11.70;38.10;;;;;;5110232;27;20151;-55
2021/01/14 10:05:07;;;;;;;93.60;30.30;;;11.70;38.30;;;;;;5107896;28;20487;-56
2021/01/14 10:07:42;;;;;;;107.38;30.92;;;11.60;38.20;;;;;;5107078;27;20083;-55
2021/01/14 10:10:09;;;;;;;94.22;30.20;;;11.60;38.50;;;;;;5112509;27;20097;-55
2021/01/14 10:12:35;;;;;;;98.22;29.50;;;11.60;38.10;;;;;;5092701;28;20072;-56
2021/01/14 10:15:15;;;;;;;113.85;30.20;;;11.50;37.70;;;;;;5080380;28;20541;-57
2021/01/14 10:17:42;;;;;;;112.45;30.38;;;11.50;37.80;;;;;;5094827;28;20439;-54
2021/01/14 10:20:12;;;;;;;107.60;30.30;;;11.50;38.20;;;;;;5107858;28;20080;-54
2021/01/14 10:23:05;;;;;;;114.32;30.42;;;11.60;38.20;;;;;;5095507;28;20538;-53
2021/01/14 10:25:31;;;;;;;103.40;30.15;;;11.50;37.70;;;;;;5091313;28;20088;-56
2021/01/14 10:27:59;;;;;;;;;;;11.50;38.50;;;;;;5097528;28;20082;-55
2021/01/14 10:30:27;;;;;;;100.93;28.98;;;11.40;37.90;;;;;;5108900;27;19964;-55
2021/01/14 10:33:01;;;;;;;102.45;28.65;;;11.40;38.10;;;;;;5110373;27;20107;-56
2021/01/14 10:35:30;;;;;;;107.55;30.33;;;11.50;38.30;;;;;;5093664;27;20071;-57
2021/01/14 10:38:16;;;;;;;111.57;30.90;;;11.40;37.90;;;;;;5112445;27;20080;-53
2021/01/14 10:40:45;;;;;;;105.68;31.17;;;11.40;38.10;;;;;;5111263;28;20143;-55
2021/01/14 10:43:16;;;;;;;110.95;31.15;;;11.40;38.70;;;;;;5110016;27;20602;-53
2021/01/14 10:45:43;;;;;;;98.35;31.13;;;11.30;39.70;;;;;;5109652;27;20068;-57
2021/01/14 10:48:17;;;;;;;106.38;29.38;;;11.30;39.30;;;;;;5109090;27;20479;-56
2021/01/14 10:50:55;;;;;;;95.10;28.73;;;11.30;38.90;;;;;;5109730;27;20073;-55
2021/01/14 10:53:31;;;;;;;94.30;27.17;;;11.40;38.90;;;;;;5107597;28;20091;-55
2021/01/14 10:56:12;;;;;;;98.78;27.73;;;11.30;39.10;;;;;;5107333;28;20071;-53
2021/01/14 10:58:41;;;;;;;97.32;27.42;;;11.30;39.30;;;;;;5108922;28;20080;-55
2021/01/14 11:01:19;;;;;;;99.60;27.50;;;11.30;40.20;;;;;;5106912;28;20097;-61
2021/01/14 11:03:46;;;;;;;98.85;27.33;;;11.30;40.50;;;;;;5107800;28;20108;-57
2021/01/14 11:06:28;;;;;;;92.45;26.45;;;11.20;40.00;;;;;;5109011;28;20072;-57
2021/01/14 11:09:11;;;;;;;80.15;25.77;;;11.20;39.30;;;;;;5110410;28;20079;-55
2021/01/14 11:11:38;;;;;;;86.32;25.95;;;11.20;40.00;;;;;;5110231;27;20079;-55
2021/01/14 11:14:04;;;;;;;;;;;11.20;39.80;;;;;;5107972;28;20159;-55
2021/01/14 11:16:31;;;;;;;89.20;26.63;;;11.20;40.20;;;;;;5109594;27;19956;-55
2021/01/14 11:18:58;;;;;;;;;;;11.20;40.20;;;;;;5107798;28;20075;-53
2021/01/14 11:21:28;;;;;;;87.80;25.75;;;11.20;40.20;;;;;;5105226;28;20452;-57
2021/01/14 11:23:56;;;;;;;92.07;25.67;;;11.10;39.80;;;;;;5108216;28;20107;-57
2021/01/14 11:26:24;;;;;;;61.70;24.50;;;11.00;39.80;;;;;;5108016;28;20557;-55
2021/01/14 11:28:51;;;;;;;87.35;24.63;;;11.00;39.30;;;;;;5097776;28;20428;-55
2021/01/14 11:31:20;;;;;;;70.97;23.73;;;11.00;39.70;;;;;;5107181;28;20100;-56
2021/01/14 11:33:48;;;;;;;77.53;23.35;;;11.00;39.60;;;;;;5109532;28;20119;-54
2021/01/14 11:36:18;;;;;;;86.50;24.83;;;11.00;39.40;;;;;;5108475;28;20539;-56
2021/01/14 11:38:45;;;;;;;91.40;24.38;;;10.80;39.50;;;;;;5107125;28;20489;-55
2021/01/14 11:41:15;;;;;;;;;;;10.80;39.80;;;;;;5108749;28;20079;-55
2021/01/14 11:43:42;;;;;;;91.43;25.77;;;10.90;40.60;;;;;;5108484;28;20356;-57
2021/01/14 11:46:08;;;;;;;;;;;10.90;40.60;;;;;;5110569;28;20073;-57
2021/01/14 11:48:35;;;;;;;80.65;22.85;;;11.00;40.60;;;;;;5109683;28;19960;-57
2021/01/14 11:51:01;;;;;;;80.03;23.75;;;11.00;40.80;;;;;;5108318;28;20087;-57
2021/01/14 11:53:27;;;;;;;;;;;11.00;40.80;;;;;;5109056;28;20158;-56
2021/01/14 11:55:56;;;;;;;86.95;24.50;;;10.90;40.40;;;;;;5109030;28;19956;-57
2021/01/14 11:58:22;;;;;;;93.88;24.95;;;10.90;40.80;;;;;;5107734;28;20084;-60
2021/01/14 12:00:48;;;;;;;;;;;11.00;41.00;;;;;;5106621;28;20068;-55
2021/01/14 12:03:15;;;;;;;70.38;22.67;;;10.90;40.60;;;;;;5106341;28;20012;-54
2021/01/14 12:05:41;;;;;;;78.97;24.10;;;10.90;40.90;;;;;;5108646;28;20145;-55
2021/01/14 12:08:07;;;;;;;;;;;10.90;41.00;;;;;;5114312;28;20137;-56
2021/01/14 12:10:34;;;;;;;86.95;24.40;;;10.90;41.30;;;;;;5108996;28;20054;-56
2021/01/14 12:13:01;;;;;;;82.40;23.25;;;10.90;41.60;;;;;;5107432;28;20147;-54
2021/01/14 12:15:27;;;;;;;;;;;10.80;41.30;;;;;;5107444;28;20079;-56
2021/01/14 12:17:53;;;;;;;80.50;24.00;;;10.80;41.40;;;;;;5107729;28;19970;-53
2021/01/14 12:20:20;;;;;;;71.20;21.67;;;10.80;41.40;;;;;;5109125;28;20480;-57
2021/01/14 12:22:46;;;;;;;;;;;10.80;41.40;;;;;;5108536;28;20621;-56
2021/01/14 12:25:13;;;;;;;78.10;20.77;;;10.80;41.70;;;;;;5111552;28;20025;-57
2021/01/14 12:27:42;;;;;;;56.30;18.48;;;10.70;42.10;;;;;;5099649;27;20543;-57
2021/01/14 12:30:09;;;;;;;74.70;21.60;;;10.70;42.40;;;;;;5111541;27;20126;-58
2021/01/14 12:32:37;;;;;;;62.35;20.13;;;10.60;42.50;;;;;;5111657;28;20087;-58
2021/01/14 12:35:06;;;;;;;66.93;21.35;;;10.60;41.90;;;;;;5110082;28;20116;-58
2021/01/14 12:37:37;;;;;;;79.20;21.92;;;10.60;42.20;;;;;;5114220;27;20125;-57
2021/01/14 12:40:06;;;;;;;67.55;21.80;;;10.60;42.40;;;;;;5109875;28;20072;-58
2021/01/14 12:42:32;;;;;;;65.57;22.40;;;10.60;42.70;;;;;;5110574;28;20092;-57
2021/01/14 12:44:59;;;;;;;;;;;10.50;42.70;;;;;;5112994;27;20076;-52
2021/01/14 12:47:25;;;;;;;80.25;27.35;;;10.50;42.50;;;;;;5109681;27;20473;-55
2021/01/14 12:49:51;;;;;;;;;;;10.50;42.00;;;;;;5108857;28;20166;-57
2021/01/14 12:52:18;;;;;;;84.97;31.92;;;10.50;42.00;;;;;;5111791;27;19964;-53
2021/01/14 12:54:44;;;;;;;;;;;10.50;42.00;;;;;;5110334;28;20100;-55